الصفحة الرئيسية
METAR-TAF:

METAR-TAF

مطار :

مطار شرم الشيخ الدولي

شرم الشيخ, مصر

دائرة عرض: 27-58N, خط طول: 034-23E, ارتفاع: 50 متر

مراقبة الطقس الحالي

تاريخ ووقت الإصدار 1ساعة و 40 دقيقة قبل الساعة 06:00UTC
ريح 14 عقدة من الشمال
درجة الحرارة 30°درجة مئوية
الرطوبة 55%
ضغط 1012 hPa
الرؤية 10 كم أو أكثر
غيوم متفرقة على ارتفاع 2500 قدم

METAR: HESH 260600Z 01014KT 9999 SCT025 30/20 Q1012 NOSIG

زمن: 09:40 (07:40 UTC)

توقعات

تاريخ ووقت الإصدار 2ساعات و 40 دقيقة قبل الساعة 05:00UTC
التوقعات صالحة من26 الساعة 06 UTC إلى 27 الساعة 12 UTC
ريح 10 عقدة من الشمال تتزايد حتى 20 عقدة
الرؤية 10 كم أو أكثر
الغيوم لا تقل 1500 م ولا وجود لمزنة ركامية السحاب الأسود

TAF: HESH 260500Z 2606/2712 36010G20KT CAVOK

أرصاد الطقس والتوقعات من أكثر من 4000 مطار (تقارير الطقس للمطار METAR والتنبؤ بالطقس بالمطارTAF).

المحطات المتاحة هي النقط الصفراء والحمراء على الخريطة.

حرك المؤشر فوق النقطة لمعرفة اسم المحطة.

ثم انقر لمعرفة أرصاد وتوقعات الطقس.

لتغيير الخارطة: اضغط على الأزرار الخضراء مع رمز الصليب الأسود للتكبير. على الزر الأخضر مع شرطة للتصغير، أو على الأسهم الخضراء للخرائط المجاورة.


METAR-TAF: